クアラルンプール の空港の天気 - METARとTAF

クアラルンプール国際空港 ( WMKK / KUL ) - マレーシア スランゴール州セパン
飛行場実況気象(Metar)
観測時間02/22 13:30 MYT (02/22 05:30 UTC)
風向・風速東北東 6m/s
視程10km以上
天気現象
全天の4割程度の雲 雲底高度 550m
気温33℃
湿度53%
気圧1013hPa
METARWMKK 220530Z 07012KT 020V140 9999 SCT018 33/22 Q1013 NOSIG
過去の天気等 Google飛行場航空写真 Wunderground天気予報

過去48時間のMETAR

飛行場予報(TAF)
発表時間: 2/22 11:14 MYT (2/22 03:14 UTC)
予報対象時間: 22日11時 MYT ~ 23日14時 MYT
風向・風速東北東 5m/s
視程10km以上
少しの雲 雲底高度 550m
22日12時 MYT ~ 22日16時 MYT に一時的に
視程5000m
天気現象しゅう雨
少しの積乱雲 雲底高度 520m
全天の4割程度の雲 雲底高度 550m
22日18時 MYT ~ 22日20時 MYT に徐々に
風向・風速東北東 3m/s
TAF AMD WMKK 220314Z 2203/2306 06010KT 9999 FEW018
TEMPO 2204/2208 5000 SHRA FEW017CB SCT018
BECMG 2210/2212 06006KT